Time;durP1;ratioP1;P1;durP2;ratioP2;P2;SDS_P1;SDS_P2;PMS_P1;PMS_P2;Temp;Humidity;BMP_temperature;BMP_pressure;BME280_temperature;BME280_humidity;BME280_pressure;Samples;Min_cycle;Max_cycle;Signal;HPM_P1;HPM_P2
2021/11/11 00:00:46;;;;;;;27.17;19.20;;;;;;;;;;5051524;28;20269;-81
2021/11/11 00:03:31;;;;;;;29.43;19.17;;;;;;;;;;5051697;28;20186;-81
2021/11/11 00:06:16;;;;;;;26.33;19.17;;;;;;;;;;5051700;28;20325;-80
2021/11/11 00:09:01;;;;;;;28.13;19.73;;;;;;;;;;5051377;28;20288;-81
2021/11/11 00:11:46;;;;;;;26.37;19.13;;;;;;;;;;5051224;28;20203;-80
2021/11/11 00:14:32;;;;;;;25.40;18.90;;;;;;;;;;5051372;28;20326;-81
2021/11/11 00:17:18;;;;;;;26.53;19.23;;;;;;;;;;5051588;28;20194;-80
2021/11/11 00:20:03;;;;;;;27.83;18.57;;;;;;;;;;5051260;28;20190;-81
2021/11/11 00:22:49;;;;;;;24.50;17.97;;;;;;;;;;5051482;28;20259;-81
2021/11/11 00:25:35;;;;;;;26.50;18.53;;;;;;;;;;5050776;28;20272;-81
2021/11/11 00:28:20;;;;;;;30.63;20.67;;;;;;;;;;5051248;28;20194;-80
2021/11/11 00:31:05;;;;;;;27.37;19.20;;;;;;;;;;5051264;28;20209;-80
2021/11/11 00:33:52;;;;;;;31.27;21.37;;;;;;;;;;5050427;28;20318;-81
2021/11/11 00:36:37;;;;;;;34.80;24.50;;;;;;;;;;5050946;28;20210;-81
2021/11/11 00:39:22;;;;;;;44.77;24.47;;;;;;;;;;5051185;28;20190;-81
2021/11/11 00:42:07;;;;;;;31.63;21.27;;;;;;;;;;5050864;28;20662;-81
2021/11/11 00:44:52;;;;;;;30.20;20.50;;;;;;;;;;5050812;28;20186;-80
2021/11/11 00:47:37;;;;;;;27.17;19.90;;;;;;;;;;5050935;28;20187;-80
2021/11/11 00:50:25;;;;;;;29.13;19.93;;;;;;;;;;5050849;28;20237;-80
2021/11/11 00:53:10;;;;;;;26.83;20.23;;;;;;;;;;5051278;28;20187;-81
2021/11/11 00:55:55;;;;;;;29.27;20.47;;;;;;;;;;5051397;28;20187;-80
2021/11/11 00:58:40;;;;;;;28.20;19.83;;;;;;;;;;5058274;28;20748;-81
2021/11/11 01:01:28;;;;;;;30.30;19.53;;;;;;;;;;5070525;28;20209;-81
2021/11/11 01:04:13;;;;;;;26.17;18.70;;;;;;;;;;5070794;28;20190;-81
2021/11/11 01:06:59;;;;;;;28.93;19.63;;;;;;;;;;5070727;28;20221;-81
2021/11/11 01:09:44;;;;;;;28.43;19.80;;;;;;;;;;5070721;28;20186;-81
2021/11/11 01:12:29;;;;;;;32.03;20.27;;;;;;;;;;5070790;28;20277;-80
2021/11/11 01:15:16;;;;;;;34.63;22.37;;;;;;;;;;5070476;28;20376;-81
2021/11/11 01:18:01;;;;;;;30.53;21.43;;;;;;;;;;5070687;28;20272;-80
2021/11/11 01:20:46;;;;;;;27.13;20.43;;;;;;;;;;5070111;28;20185;-81
2021/11/11 01:23:33;;;;;;;27.03;20.20;;;;;;;;;;5070530;28;20198;-80
2021/11/11 01:26:18;;;;;;;28.20;19.60;;;;;;;;;;5070802;28;20618;-80
2021/11/11 01:29:03;;;;;;;26.07;19.07;;;;;;;;;;5070536;28;20190;-81
2021/11/11 01:31:48;;;;;;;27.03;18.40;;;;;;;;;;5069919;28;20182;-81
2021/11/11 01:34:33;;;;;;;25.40;18.77;;;;;;;;;;5070275;28;20241;-81
2021/11/11 01:37:18;;;;;;;23.43;17.80;;;;;;;;;;5070513;28;20260;-80
2021/11/11 01:40:06;;;;;;;31.13;18.77;;;;;;;;;;5070394;28;20190;-81
2021/11/11 01:42:51;;;;;;;27.03;18.83;;;;;;;;;;5070627;28;20791;-80
2021/11/11 01:45:38;;;;;;;28.30;19.00;;;;;;;;;;5072180;28;20278;-81
2021/11/11 01:48:24;;;;;;;25.90;18.60;;;;;;;;;;5074154;28;20653;-80
2021/11/11 01:51:09;;;;;;;26.53;18.70;;;;;;;;;;5073903;28;20709;-81
2021/11/11 01:53:54;;;;;;;28.03;19.00;;;;;;;;;;5074114;28;20182;-80
2021/11/11 01:56:41;;;;;;;26.13;18.77;;;;;;;;;;5073708;28;20280;-81
2021/11/11 01:59:27;;;;;;;27.83;18.17;;;;;;;;;;5073604;28;20197;-81
2021/11/11 02:02:12;;;;;;;24.13;17.63;;;;;;;;;;5073755;28;20725;-81
2021/11/11 02:04:57;;;;;;;25.63;18.03;;;;;;;;;;5073534;28;20190;-81
2021/11/11 02:07:43;;;;;;;26.63;17.00;;;;;;;;;;5073985;28;20189;-80
2021/11/11 02:10:30;;;;;;;28.70;17.67;;;;;;;;;;5073402;28;20673;-81
2021/11/11 02:13:16;;;;;;;23.67;16.97;;;;;;;;;;5074184;28;20300;-80
2021/11/11 02:16:01;;;;;;;26.00;17.37;;;;;;;;;;5073239;28;20186;-81
2021/11/11 02:18:46;;;;;;;23.33;16.67;;;;;;;;;;5073690;28;20194;-80
2021/11/11 02:21:33;;;;;;;23.07;16.53;;;;;;;;;;5073466;28;20209;-80
2021/11/11 02:24:17;;;;;;;25.63;17.13;;;;;;;;;;5073249;28;20241;-81
2021/11/11 02:27:03;;;;;;;25.60;17.27;;;;;;;;;;5073362;28;20588;-80
2021/11/11 02:29:48;;;;;;;24.23;17.77;;;;;;;;;;5073491;28;20241;-81
2021/11/11 02:32:34;;;;;;;23.27;16.63;;;;;;;;;;5073369;28;20263;-81
2021/11/11 02:35:20;;;;;;;22.80;16.00;;;;;;;;;;5073272;28;20182;-80
2021/11/11 02:38:07;;;;;;;20.37;16.07;;;;;;;;;;5073462;28;20260;-81
2021/11/11 02:40:52;;;;;;;22.60;15.83;;;;;;;;;;5073125;28;20956;-80
2021/11/11 02:43:37;;;;;;;22.30;16.53;;;;;;;;;;5073121;28;20217;-81
2021/11/11 02:46:24;;;;;;;22.90;16.43;;;;;;;;;;5072773;28;20205;-80
2021/11/11 02:49:09;;;;;;;23.30;15.93;;;;;;;;;;5073154;28;20189;-80
2021/11/11 02:51:54;;;;;;;24.23;15.77;;;;;;;;;;5073618;28;20225;-81
2021/11/11 02:54:41;;;;;;;25.03;16.63;;;;;;;;;;5073246;28;20248;-80
2021/11/11 02:57:27;;;;;;;24.23;16.83;;;;;;;;;;5072945;28;20661;-81
2021/11/11 03:00:14;;;;;;;22.93;16.23;;;;;;;;;;5072548;28;20190;-81
2021/11/11 03:03:00;;;;;;;22.80;16.10;;;;;;;;;;5073083;28;20705;-80
2021/11/11 03:05:45;;;;;;;21.93;16.60;;;;;;;;;;5072557;28;20646;-81
2021/11/11 03:08:30;;;;;;;21.97;16.20;;;;;;;;;;5072889;28;20233;-80
2021/11/11 03:11:16;;;;;;;20.83;16.10;;;;;;;;;;5072603;28;20316;-81
2021/11/11 03:14:01;;;;;;;22.17;16.20;;;;;;;;;;5072426;28;20197;-81
2021/11/11 03:16:46;;;;;;;23.87;16.93;;;;;;;;;;5072462;28;20905;-80
2021/11/11 03:19:31;;;;;;;21.63;16.03;;;;;;;;;;5072003;28;20185;-81
2021/11/11 03:22:18;;;;;;;25.03;16.60;;;;;;;;;;5072211;28;20351;-80
2021/11/11 03:25:03;;;;;;;23.63;16.80;;;;;;;;;;5071743;28;20249;-80
2021/11/11 03:27:51;;;;;;;21.53;15.80;;;;;;;;;;5072817;28;20178;-80
2021/11/11 03:30:36;;;;;;;22.10;16.23;;;;;;;;;;5072102;28;20658;-81
2021/11/11 03:33:21;;;;;;;23.43;16.60;;;;;;;;;;5072327;28;20185;-82
2021/11/11 03:36:06;;;;;;;22.70;16.20;;;;;;;;;;5072062;28;20244;-81
2021/11/11 03:38:51;;;;;;;24.03;16.80;;;;;;;;;;5072055;28;20316;-81
2021/11/11 03:41:36;;;;;;;20.87;16.00;;;;;;;;;;5071961;28;20206;-81
2021/11/11 03:44:23;;;;;;;25.93;15.70;;;;;;;;;;5071749;28;20807;-81
2021/11/11 03:47:09;;;;;;;21.80;15.37;;;;;;;;;;5071549;28;20178;-81
2021/11/11 03:49:54;;;;;;;26.90;16.27;;;;;;;;;;5071761;28;20587;-81
2021/11/11 03:52:39;;;;;;;22.30;15.50;;;;;;;;;;5072106;28;20190;-80
2021/11/11 03:55:25;;;;;;;21.07;15.47;;;;;;;;;;5071378;28;20240;-81
2021/11/11 03:58:15;;;;;;;23.40;15.77;;;;;;;;;;5071908;28;20186;-81
2021/11/11 04:01:02;;;;;;;24.13;16.50;;;;;;;;;;5071544;28;20190;-80
2021/11/11 04:03:46;;;;;;;22.33;14.87;;;;;;;;;;5071659;28;20202;-80
2021/11/11 04:06:32;;;;;;;21.33;15.67;;;;;;;;;;5071528;28;20186;-80
2021/11/11 04:09:17;;;;;;;25.67;15.50;;;;;;;;;;5071053;28;20194;-81
2021/11/11 04:12:03;;;;;;;22.37;15.40;;;;;;;;;;5072100;28;20292;-81
2021/11/11 04:14:48;;;;;;;23.50;16.27;;;;;;;;;;5071923;28;20198;-81
2021/11/11 04:17:34;;;;;;;20.83;15.07;;;;;;;;;;5071752;28;20190;-81
2021/11/11 04:20:19;;;;;;;28.03;17.13;;;;;;;;;;5071474;28;20186;-81
2021/11/11 04:23:04;;;;;;;25.97;16.53;;;;;;;;;;5071493;28;20210;-80
2021/11/11 04:25:55;;;;;;;23.97;16.93;;;;;;;;;;5070950;28;20237;-80
2021/11/11 04:28:46;;;;;;;24.73;15.93;;;;;;;;;;5071555;28;20203;-80
2021/11/11 04:31:34;;;;;;;25.33;15.93;;;;;;;;;;5069795;28;20189;-80
2021/11/11 04:34:21;;;;;;;32.17;17.10;;;;;;;;;;5071258;28;20189;-82
2021/11/11 04:37:22;;;;;;;32.10;17.83;;;;;;;;;;5071326;28;20689;-82
2021/11/11 04:46:29;;;;;;;30.40;17.37;;;;;;;;;;5068118;28;20742;-81
2021/11/11 04:52:26;;;;;;;36.23;18.20;;;;;;;;;;5070872;28;20534;-80
2021/11/11 05:01:23;;;;;;;33.17;18.67;;;;;;;;;;5067080;28;20278;-79
2021/11/11 05:04:09;;;;;;;49.30;20.10;;;;;;;;;;5050551;28;20253;-80
2021/11/11 05:06:56;;;;;;;48.60;19.87;;;;;;;;;;5050755;28;20190;-80
2021/11/11 05:09:42;;;;;;;45.90;20.73;;;;;;;;;;5050549;28;20197;-80
2021/11/11 05:12:28;;;;;;;90.63;22.13;;;;;;;;;;5070656;28;20197;-81
2021/11/11 05:15:14;;;;;;;54.47;21.30;;;;;;;;;;5070798;28;20182;-79
2021/11/11 05:17:59;;;;;;;65.87;21.73;;;;;;;;;;5070750;28;20645;-80
2021/11/11 05:20:44;;;;;;;71.00;23.00;;;;;;;;;;5074108;28;20182;-81
2021/11/11 05:23:29;;;;;;;94.50;24.57;;;;;;;;;;5074744;28;20209;-81
2021/11/11 05:26:16;;;;;;;71.90;24.03;;;;;;;;;;5074298;28;20193;-80
2021/11/11 05:29:01;;;;;;;61.70;22.10;;;;;;;;;;5067468;28;20202;-81
2021/11/11 05:31:46;;;;;;;73.27;23.20;;;;;;;;;;5054450;28;20195;-80
2021/11/11 05:34:31;;;;;;;95.60;23.27;;;;;;;;;;5054392;28;20265;-79
2021/11/11 05:37:17;;;;;;;72.60;22.80;;;;;;;;;;5054328;28;20191;-79
2021/11/11 05:40:02;;;;;;;80.07;22.63;;;;;;;;;;5053730;28;20298;-80
2021/11/11 05:42:49;;;;;;;83.27;23.27;;;;;;;;;;5054092;28;20190;-80
2021/11/11 05:45:34;;;;;;;78.10;23.43;;;;;;;;;;5053695;28;20194;-81
2021/11/11 05:48:19;;;;;;;77.03;23.37;;;;;;;;;;5054135;28;20282;-80
2021/11/11 05:51:04;;;;;;;97.87;22.37;;;;;;;;;;5053780;28;20246;-79
2021/11/11 05:53:49;;;;;;;94.63;24.43;;;;;;;;;;5054069;28;20194;-80
2021/11/11 05:56:34;;;;;;;100.43;23.50;;;;;;;;;;5053988;28;20202;-80
2021/11/11 05:59:21;;;;;;;64.03;22.93;;;;;;;;;;5054474;28;20257;-80
2021/11/11 06:02:06;;;;;;;141.37;28.00;;;;;;;;;;5074057;28;20594;-79
2021/11/11 06:04:51;;;;;;;67.17;22.73;;;;;;;;;;5073899;28;20685;-79
2021/11/11 06:07:36;;;;;;;60.73;23.97;;;;;;;;;;5074060;28;20646;-81
2021/11/11 06:10:21;;;;;;;53.43;22.50;;;;;;;;;;5074151;28;20224;-80
2021/11/11 06:13:06;;;;;;;59.97;21.83;;;;;;;;;;5073933;28;20224;-81
2021/11/11 06:15:52;;;;;;;78.37;21.67;;;;;;;;;;5073602;28;20521;-81
2021/11/11 06:18:37;;;;;;;50.60;21.37;;;;;;;;;;5073248;28;20189;-81
2021/11/11 06:21:22;;;;;;;63.17;20.30;;;;;;;;;;5073222;28;20323;-81
2021/11/11 06:24:08;;;;;;;51.03;18.27;;;;;;;;;;5073020;28;20724;-81
2021/11/11 06:26:53;;;;;;;42.70;19.53;;;;;;;;;;5073160;28;20301;-81
2021/11/11 06:29:39;;;;;;;46.90;20.07;;;;;;;;;;5073154;28;20190;-81
2021/11/11 06:32:25;;;;;;;91.80;20.60;;;;;;;;;;5073134;28;20593;-81
2021/11/11 06:35:10;;;;;;;40.50;18.27;;;;;;;;;;5073493;28;20657;-81
2021/11/11 06:37:55;;;;;;;49.13;18.40;;;;;;;;;;5073386;28;20777;-81
2021/11/11 06:40:41;;;;;;;44.17;20.10;;;;;;;;;;5073454;28;20672;-80
2021/11/11 06:43:27;;;;;;;55.50;19.03;;;;;;;;;;5073504;28;20553;-80
2021/11/11 06:46:12;;;;;;;111.80;22.77;;;;;;;;;;5073435;28;20619;-82
2021/11/11 06:48:58;;;;;;;41.90;21.00;;;;;;;;;;5073736;28;20669;-81
2021/11/11 06:51:43;;;;;;;44.87;18.77;;;;;;;;;;5073485;28;20758;-80
2021/11/11 06:54:29;;;;;;;39.57;18.73;;;;;;;;;;5073191;28;20186;-81
2021/11/11 06:57:14;;;;;;;37.23;16.63;;;;;;;;;;5073711;28;20654;-80
2021/11/11 06:59:59;;;;;;;31.00;16.53;;;;;;;;;;5073162;28;20197;-82
2021/11/11 07:02:44;;;;;;;32.57;16.40;;;;;;;;;;5073675;28;20201;-82
2021/11/11 07:05:31;;;;;;;38.83;15.23;;;;;;;;;;5073472;28;20181;-82
2021/11/11 07:08:16;;;;;;;36.87;15.00;;;;;;;;;;5073257;28;20538;-82
2021/11/11 07:11:04;;;;;;;43.57;16.53;;;;;;;;;;5073145;28;20266;-82
2021/11/11 07:13:49;;;;;;;78.90;16.63;;;;;;;;;;5073304;28;20283;-81
2021/11/11 07:16:34;;;;;;;42.17;16.23;;;;;;;;;;5073141;28;20708;-82
2021/11/11 07:19:19;;;;;;;38.40;15.03;;;;;;;;;;5073028;28;20240;-82
2021/11/11 07:22:06;;;;;;;24.53;15.13;;;;;;;;;;5073325;28;20264;-82
2021/11/11 07:24:51;;;;;;;36.83;14.50;;;;;;;;;;5072669;28;20233;-81
2021/11/11 07:27:36;;;;;;;62.17;15.03;;;;;;;;;;5073002;28;20213;-82
2021/11/11 07:30:21;;;;;;;54.90;17.57;;;;;;;;;;5072415;28;20185;-81
2021/11/11 07:33:07;;;;;;;82.33;14.83;;;;;;;;;;5072748;28;20190;-82
2021/11/11 07:35:52;;;;;;;66.37;16.27;;;;;;;;;;5072453;28;20186;-82
2021/11/11 07:38:38;;;;;;;72.60;16.63;;;;;;;;;;5072664;28;20670;-83
2021/11/11 07:41:23;;;;;;;65.53;18.10;;;;;;;;;;5072706;28;20730;-81
2021/11/11 07:44:09;;;;;;;42.23;15.87;;;;;;;;;;5071475;28;20693;-81
2021/11/11 07:46:55;;;;;;;78.80;17.73;;;;;;;;;;5072606;28;20201;-82
2021/11/11 07:49:41;;;;;;;79.20;16.60;;;;;;;;;;5072550;28;20663;-81
2021/11/11 07:52:27;;;;;;;77.40;18.57;;;;;;;;;;5072083;28;20228;-81
2021/11/11 07:55:13;;;;;;;53.63;20.57;;;;;;;;;;5072069;28;20186;-82
2021/11/11 07:57:59;;;;;;;58.30;18.87;;;;;;;;;;5072233;28;20753;-82
2021/11/11 08:00:44;;;;;;;70.13;19.90;;;;;;;;;;5072326;28;20190;-81
2021/11/11 08:03:30;;;;;;;83.20;21.67;;;;;;;;;;5072053;28;20316;-82
2021/11/11 08:06:15;;;;;;;45.23;21.57;;;;;;;;;;5072123;28;20275;-82
2021/11/11 08:09:00;;;;;;;74.00;21.70;;;;;;;;;;5071939;28;20186;-83
2021/11/11 08:11:48;;;;;;;166.10;24.50;;;;;;;;;;5071965;28;20289;-82
2021/11/11 08:14:34;;;;;;;253.23;26.27;;;;;;;;;;5072257;28;20670;-81
2021/11/11 08:17:21;;;;;;;88.73;24.77;;;;;;;;;;5071869;28;20240;-82
2021/11/11 08:20:07;;;;;;;135.17;24.80;;;;;;;;;;5071932;28;20240;-82
2021/11/11 08:22:52;;;;;;;58.40;24.37;;;;;;;;;;5071792;28;20240;-82
2021/11/11 08:25:37;;;;;;;83.00;24.40;;;;;;;;;;5071396;28;20240;-82
2021/11/11 08:28:23;;;;;;;86.67;24.33;;;;;;;;;;5071295;28;20565;-82
2021/11/11 08:31:08;;;;;;;126.53;25.63;;;;;;;;;;5071885;28;20182;-82
2021/11/11 08:33:53;;;;;;;243.00;25.17;;;;;;;;;;5071315;28;20198;-82
2021/11/11 08:36:38;;;;;;;117.40;26.70;;;;;;;;;;5071841;28;20178;-82
2021/11/11 08:39:24;;;;;;;113.57;25.93;;;;;;;;;;5071428;28;20193;-83
2021/11/11 08:42:09;;;;;;;68.30;25.33;;;;;;;;;;5071640;28;20648;-82
2021/11/11 08:44:56;;;;;;;105.23;26.87;;;;;;;;;;5071124;28;20206;-83
2021/11/11 08:47:41;;;;;;;69.83;25.33;;;;;;;;;;5071460;28;20262;-83
2021/11/11 08:50:30;;;;;;;105.33;26.10;;;;;;;;;;5071299;28;20709;-82
2021/11/11 08:53:15;;;;;;;66.03;24.53;;;;;;;;;;5071046;28;20321;-82
2021/11/11 08:56:00;;;;;;;70.43;23.87;;;;;;;;;;5075659;28;20303;-83
2021/11/11 08:58:46;;;;;;;102.40;25.80;;;;;;;;;;5075501;28;20669;-83
2021/11/11 09:01:32;;;;;;;72.17;26.33;;;;;;;;;;5075530;28;20317;-82
2021/11/11 09:04:18;;;;;;;84.73;26.23;;;;;;;;;;5075379;28;20632;-82
2021/11/11 09:07:04;;;;;;;186.77;29.77;;;;;;;;;;5075335;28;20657;-83
2021/11/11 09:09:49;;;;;;;86.30;27.27;;;;;;;;;;5075376;28;20228;-82
2021/11/11 09:12:34;;;;;;;92.20;26.23;;;;;;;;;;5075277;28;20668;-82
2021/11/11 09:15:21;;;;;;;122.63;27.07;;;;;;;;;;5075206;28;20198;-82
2021/11/11 09:18:08;;;;;;;86.17;27.87;;;;;;;;;;5075033;28;20194;-82
2021/11/11 09:20:53;;;;;;;71.80;26.77;;;;;;;;;;5075389;28;20658;-82
2021/11/11 09:23:39;;;;;;;62.50;27.50;;;;;;;;;;5074757;28;20613;-83
2021/11/11 09:26:25;;;;;;;63.27;26.87;;;;;;;;;;5075018;28;20182;-82
2021/11/11 09:29:10;;;;;;;78.03;28.73;;;;;;;;;;5074536;28;20264;-83
2021/11/11 09:31:55;;;;;;;46.17;25.23;;;;;;;;;;5074672;28;20246;-82
2021/11/11 09:34:41;;;;;;;63.10;26.70;;;;;;;;;;5074550;28;20185;-82
2021/11/11 09:37:26;;;;;;;82.43;27.13;;;;;;;;;;5074606;28;20662;-83
2021/11/11 09:40:13;;;;;;;57.33;27.50;;;;;;;;;;5074712;28;20194;-82
2021/11/11 09:42:59;;;;;;;101.13;27.27;;;;;;;;;;5074547;28;20677;-83
2021/11/11 09:45:45;;;;;;;82.03;27.13;;;;;;;;;;5074746;28;20571;-81
2021/11/11 09:48:32;;;;;;;146.03;30.33;;;;;;;;;;5074409;28;20190;-81
2021/11/11 09:51:21;;;;;;;78.77;28.73;;;;;;;;;;5074663;28;20244;-83
2021/11/11 09:58:34;;;;;;;58.70;29.20;;;;;;;;;;5074301;28;20189;-82
2021/11/11 10:00:31;;;;;;;69.93;29.57;;;;;;;;;;5074368;28;20244;-82
2021/11/11 10:03:16;;;;;;;64.43;28.93;;;;;;;;;;5074177;28;20546;-83
2021/11/11 10:06:02;;;;;;;52.00;27.30;;;;;;;;;;5073329;28;20333;-83
2021/11/11 10:08:50;;;;;;;62.37;29.10;;;;;;;;;;5074281;28;20321;-82
2021/11/11 10:11:36;;;;;;;59.23;28.03;;;;;;;;;;5074071;28;20209;-82
2021/11/11 10:14:23;;;;;;;67.53;27.83;;;;;;;;;;5074170;28;20637;-82
2021/11/11 10:17:09;;;;;;;60.10;28.43;;;;;;;;;;5074099;28;20186;-82
2021/11/11 10:19:55;;;;;;;50.30;26.67;;;;;;;;;;5073999;28;20232;-82
2021/11/11 10:22:42;;;;;;;53.70;26.67;;;;;;;;;;5074406;28;20320;-81
2021/11/11 10:25:29;;;;;;;46.87;27.47;;;;;;;;;;5073812;28;20236;-83
2021/11/11 10:28:14;;;;;;;45.13;24.80;;;;;;;;;;5073530;28;20181;-83
2021/11/11 10:30:59;;;;;;;48.33;25.80;;;;;;;;;;5073945;28;20186;-82
2021/11/11 10:33:59;;;;;;;44.60;25.13;;;;;;;;;;5073977;28;20264;-82
2021/11/11 10:36:47;;;;;;;47.07;26.33;;;;;;;;;;5073932;28;20703;-82
2021/11/11 10:39:33;;;;;;;50.27;24.67;;;;;;;;;;5073689;28;20182;-82
2021/11/11 10:42:21;;;;;;;81.47;27.10;;;;;;;;;;5073694;28;20182;-82
2021/11/11 10:45:09;;;;;;;42.77;24.87;;;;;;;;;;5073503;28;20210;-82
2021/11/11 10:47:56;;;;;;;44.10;25.20;;;;;;;;;;5073496;28;20189;-82
2021/11/11 10:50:43;;;;;;;47.63;25.93;;;;;;;;;;5073303;28;20237;-82
2021/11/11 10:53:30;;;;;;;38.17;23.93;;;;;;;;;;5073335;28;20185;-81
2021/11/11 10:56:15;;;;;;;55.40;25.63;;;;;;;;;;5073369;28;20579;-82
2021/11/11 10:59:09;;;;;;;62.80;26.10;;;;;;;;;;5073526;28;20688;-82
2021/11/11 11:02:01;;;;;;;96.67;27.10;;;;;;;;;;5073474;28;20190;-82
2021/11/11 11:04:46;;;;;;;67.47;26.60;;;;;;;;;;5073478;28;20544;-81
2021/11/11 11:07:31;;;;;;;49.37;26.70;;;;;;;;;;5073101;28;20275;-81
2021/11/11 11:10:18;;;;;;;49.03;27.87;;;;;;;;;;5073188;28;20271;-81
2021/11/11 11:13:08;;;;;;;59.70;31.33;;;;;;;;;;5073191;28;20539;-82
2021/11/11 11:15:59;;;;;;;55.20;30.13;;;;;;;;;;5073076;28;20586;-82
2021/11/11 11:18:45;;;;;;;78.53;32.80;;;;;;;;;;5072512;28;20650;-82
2021/11/11 11:21:31;;;;;;;68.83;34.03;;;;;;;;;;5072899;28;20692;-82
2021/11/11 11:24:17;;;;;;;84.67;36.33;;;;;;;;;;5072590;28;20753;-82
2021/11/11 11:27:05;;;;;;;78.70;36.87;;;;;;;;;;5072634;28;20562;-83
2021/11/11 11:29:57;;;;;;;83.77;37.13;;;;;;;;;;5072647;28;20209;-82
2021/11/11 11:32:45;;;;;;;81.97;38.30;;;;;;;;;;5072498;28;20646;-82
2021/11/11 11:35:31;;;;;;;82.23;35.87;;;;;;;;;;5072744;28;20279;-83
2021/11/11 11:38:24;;;;;;;86.33;38.63;;;;;;;;;;5072299;28;20236;-83
2021/11/11 11:41:24;;;;;;;82.87;36.43;;;;;;;;;;5072546;28;20272;-82
2021/11/11 11:44:16;;;;;;;76.13;35.50;;;;;;;;;;5072335;28;20194;-84
2021/11/11 11:47:06;;;;;;;79.17;37.03;;;;;;;;;;5072620;28;20570;-82
2021/11/11 11:49:55;;;;;;;75.63;37.03;;;;;;;;;;5072563;28;20229;-83
2021/11/11 11:52:44;;;;;;;91.20;40.30;;;;;;;;;;5072403;28;20194;-84
2021/11/11 11:55:33;;;;;;;79.50;38.10;;;;;;;;;;5072603;28;20240;-84
2021/11/11 11:58:22;;;;;;;79.70;38.90;;;;;;;;;;5072257;28;20534;-83
2021/11/11 12:01:25;;;;;;;79.53;39.43;;;;;;;;;;5072348;28;20186;-82
2021/11/11 12:04:20;;;;;;;71.23;36.53;;;;;;;;;;5072167;28;20186;-83
2021/11/11 12:10:20;;;;;;;71.27;32.00;;;;;;;;;;5072440;28;20253;-82
2021/11/11 12:16:27;;;;;;;60.93;32.10;;;;;;;;;;5072377;28;20259;-82
2021/11/11 12:28:45;;;;;;;66.90;32.10;;;;;;;;;;5070995;28;20527;-84
2021/11/11 12:38:34;;;;;;;61.37;31.87;;;;;;;;;;5071937;28;20253;-83
2021/11/11 12:41:03;;;;;;;64.10;33.70;;;;;;;;;;5071270;28;20300;-84
2021/11/11 12:44:10;;;;;;;66.57;33.80;;;;;;;;;;5070989;28;20186;-82
2021/11/11 12:46:56;;;;;;;67.73;33.57;;;;;;;;;;5070935;28;20205;-83
2021/11/11 12:49:41;;;;;;;67.50;34.70;;;;;;;;;;5071255;28;20190;-83
2021/11/11 12:52:26;;;;;;;67.13;35.37;;;;;;;;;;5071170;28;20189;-83
2021/11/11 12:55:17;;;;;;;70.23;36.23;;;;;;;;;;5071769;28;20316;-83
2021/11/11 12:58:04;;;;;;;73.90;37.07;;;;;;;;;;5071314;28;20558;-83
2021/11/11 13:00:50;;;;;;;63.30;35.73;;;;;;;;;;5071596;28;20193;-82
2021/11/11 13:03:44;;;;;;;71.07;36.27;;;;;;;;;;5071102;28;20271;-84
2021/11/11 13:06:35;;;;;;;67.37;37.27;;;;;;;;;;5071516;28;20205;-83
2021/11/11 13:09:22;;;;;;;75.67;38.97;;;;;;;;;;5071547;28;20243;-83
2021/11/11 13:12:13;;;;;;;71.73;38.93;;;;;;;;;;5071426;28;20221;-83
2021/11/11 13:15:02;;;;;;;68.37;36.67;;;;;;;;;;5071533;28;20262;-84
2021/11/11 13:17:48;;;;;;;77.77;40.13;;;;;;;;;;5071307;28;20190;-83
2021/11/11 13:20:36;;;;;;;67.43;38.67;;;;;;;;;;5071413;28;20267;-84
2021/11/11 13:23:28;;;;;;;77.73;39.53;;;;;;;;;;5070791;28;20209;-84
2021/11/11 13:26:55;;;;;;;76.23;39.07;;;;;;;;;;5071106;28;20296;-85
2021/11/11 14:01:20;;;;;;;77.10;38.83;;;;;;;;;;5072134;28;20551;-84
2021/11/11 14:04:26;;;;;;;78.70;39.57;;;;;;;;;;5075162;28;20210;-83
2021/11/11 15:18:02;;;;;;;78.13;41.43;;;;;;;;;;5073332;28;20178;-83
2021/11/11 15:44:23;;;;;;;75.63;39.90;;;;;;;;;;5072872;28;20201;-83
2021/11/11 16:01:19;;;;;;;75.97;37.47;;;;;;;;;;5052087;28;20233;-82
2021/11/11 16:19:54;;;;;;;80.50;36.50;;;;;;;;;;5072030;28;20177;-80
2021/11/11 16:22:58;;;;;;;88.07;36.17;;;;;;;;;;5062335;28;20662;-81
2021/11/11 16:26:01;;;;;;;79.13;35.77;;;;;;;;;;5051668;28;20261;-81
2021/11/11 16:28:49;;;;;;;74.37;35.63;;;;;;;;;;5051788;28;20651;-80
2021/11/11 16:31:35;;;;;;;73.63;36.47;;;;;;;;;;5051084;28;20731;-83
2021/11/11 16:34:20;;;;;;;86.30;35.83;;;;;;;;;;5051523;28;20191;-82
2021/11/11 16:37:07;;;;;;;64.00;34.90;;;;;;;;;;5054525;28;20190;-84
2021/11/11 16:39:52;;;;;;;109.73;36.27;;;;;;;;;;5070871;28;20186;-82
2021/11/11 16:42:38;;;;;;;80.40;35.27;;;;;;;;;;5070821;28;20320;-85
2021/11/11 16:45:24;;;;;;;70.23;34.73;;;;;;;;;;5070801;28;20267;-83
2021/11/11 16:48:09;;;;;;;66.27;33.13;;;;;;;;;;5060902;28;20688;-81
2021/11/11 16:50:54;;;;;;;68.40;33.70;;;;;;;;;;5065278;28;20220;-82
2021/11/11 16:53:40;;;;;;;76.47;35.30;;;;;;;;;;5071011;28;20681;-83
2021/11/11 16:56:27;;;;;;;73.83;34.43;;;;;;;;;;5066507;28;20195;-83
2021/11/11 16:59:14;;;;;;;71.77;34.00;;;;;;;;;;5050730;28;20240;-85
2021/11/11 17:02:00;;;;;;;67.33;32.97;;;;;;;;;;5050755;28;20667;-83
2021/11/11 17:04:45;;;;;;;67.83;32.40;;;;;;;;;;5051003;28;20191;-85
2021/11/11 17:07:30;;;;;;;61.23;33.57;;;;;;;;;;5051198;28;20219;-83
2021/11/11 17:10:15;;;;;;;64.20;33.50;;;;;;;;;;5061152;28;20274;-85
2021/11/11 17:13:02;;;;;;;68.03;31.07;;;;;;;;;;5050980;28;20215;-83
2021/11/11 17:15:48;;;;;;;64.60;32.07;;;;;;;;;;5052859;28;20750;-83
2021/11/11 17:18:33;;;;;;;68.17;30.80;;;;;;;;;;5059440;28;20299;-82
2021/11/11 17:21:20;;;;;;;65.43;32.27;;;;;;;;;;5074313;28;20193;-84
2021/11/11 17:24:11;;;;;;;66.07;32.13;;;;;;;;;;5074153;28;20616;-83
2021/11/11 17:27:20;;;;;;;81.10;30.80;;;;;;;;;;5074329;28;20210;-82
2021/11/11 17:30:06;;;;;;;58.73;29.20;;;;;;;;;;5074473;28;20189;-83
2021/11/11 17:32:52;;;;;;;90.43;30.37;;;;;;;;;;5074156;28;20190;-83
2021/11/11 17:35:38;;;;;;;124.80;28.80;;;;;;;;;;5074145;28;20193;-83
2021/11/11 17:38:24;;;;;;;63.07;27.77;;;;;;;;;;5074252;28;20193;-83
2021/11/11 17:41:09;;;;;;;73.53;35.23;;;;;;;;;;5074308;28;20195;-83
2021/11/11 17:43:54;;;;;;;69.60;33.10;;;;;;;;;;5073962;28;20565;-83
2021/11/11 17:46:42;;;;;;;85.37;26.83;;;;;;;;;;5073748;28;20185;-83
2021/11/11 17:49:38;;;;;;;142.47;28.23;;;;;;;;;;5073936;28;20471;-82
2021/11/11 17:52:26;;;;;;;79.03;27.20;;;;;;;;;;5073962;28;20224;-82
2021/11/11 17:55:14;;;;;;;147.23;26.70;;;;;;;;;;5073897;28;20190;-84
2021/11/11 17:58:01;;;;;;;55.10;27.37;;;;;;;;;;5055438;28;20674;-83
2021/11/11 18:00:49;;;;;;;66.83;28.23;;;;;;;;;;5052614;28;20199;-83
2021/11/11 18:03:35;;;;;;;135.33;27.70;;;;;;;;;;5064889;28;20201;-84
2021/11/11 18:06:27;;;;;;;67.87;28.27;;;;;;;;;;5072277;28;20198;-83
2021/11/11 18:09:15;;;;;;;123.97;27.77;;;;;;;;;;5072190;28;20260;-84
2021/11/11 18:12:05;;;;;;;131.07;26.67;;;;;;;;;;5072573;28;20280;-83
2021/11/11 18:14:55;;;;;;;63.27;26.60;;;;;;;;;;5072473;28;21048;-83
2021/11/11 18:17:46;;;;;;;51.70;26.03;;;;;;;;;;5072470;28;20642;-83
2021/11/11 18:20:32;;;;;;;59.93;27.00;;;;;;;;;;5071685;28;20309;-83
2021/11/11 18:23:18;;;;;;;57.97;26.37;;;;;;;;;;5072750;28;20190;-83
2021/11/11 18:26:03;;;;;;;51.90;26.43;;;;;;;;;;5071819;28;20237;-83
2021/11/11 18:28:52;;;;;;;69.20;27.37;;;;;;;;;;5072119;28;20343;-83
2021/11/11 18:31:41;;;;;;;64.30;27.50;;;;;;;;;;5072189;28;20198;-84
2021/11/11 18:34:33;;;;;;;62.47;26.87;;;;;;;;;;5072106;28;20190;-83
2021/11/11 18:37:24;;;;;;;56.50;28.03;;;;;;;;;;5072950;28;20206;-82
2021/11/11 18:40:11;;;;;;;58.73;28.77;;;;;;;;;;5071511;28;20190;-83
2021/11/11 18:42:57;;;;;;;51.13;27.10;;;;;;;;;;5072092;28;20252;-81
2021/11/11 18:45:42;;;;;;;57.03;25.90;;;;;;;;;;5072390;28;20193;-83
2021/11/11 18:48:30;;;;;;;69.73;28.90;;;;;;;;;;5071838;28;20287;-83
2021/11/11 18:51:25;;;;;;;63.03;29.30;;;;;;;;;;5071588;28;20230;-82
2021/11/11 18:54:11;;;;;;;63.37;26.80;;;;;;;;;;5072025;28;20189;-81
2021/11/11 18:56:57;;;;;;;69.63;27.77;;;;;;;;;;5064149;28;20667;-82
2021/11/11 18:59:42;;;;;;;55.47;26.80;;;;;;;;;;5052258;28;20553;-82
2021/11/11 19:02:29;;;;;;;65.17;26.43;;;;;;;;;;5051622;28;20195;-82
2021/11/11 19:05:17;;;;;;;55.57;25.60;;;;;;;;;;5051448;28;20241;-81
2021/11/11 19:08:04;;;;;;;51.83;26.57;;;;;;;;;;5051815;28;20210;-82
2021/11/11 19:10:50;;;;;;;152.23;27.13;;;;;;;;;;5051714;28;20187;-81
2021/11/11 19:13:39;;;;;;;66.00;25.70;;;;;;;;;;5051999;28;20332;-82
2021/11/11 19:16:29;;;;;;;152.83;26.80;;;;;;;;;;5051111;28;20198;-82
2021/11/11 19:19:16;;;;;;;91.03;26.40;;;;;;;;;;5051254;28;20199;-82
2021/11/11 19:22:02;;;;;;;80.13;25.90;;;;;;;;;;5051414;28;20609;-80
2021/11/11 19:24:47;;;;;;;90.67;25.70;;;;;;;;;;5050864;28;20238;-81
2021/11/11 19:27:32;;;;;;;75.30;25.27;;;;;;;;;;5051458;28;20198;-81